Time;durP1;ratioP1;P1;durP2;ratioP2;P2;SDS_P1;SDS_P2;PMS_P1;PMS_P2;Temp;Humidity;BMP_temperature;BMP_pressure;BME280_temperature;BME280_humidity;BME280_pressure;Samples;Min_cycle;Max_cycle;Signal;HPM_P1;HPM_P2
2022/08/11 00:01:20;;;;;;;2.83;2.60;;;17.20;99.90;;;;;;7379743;19;20319;-74
2022/08/11 00:03:52;;;;;;;2.55;2.35;;;17.10;99.90;;;;;;7376943;19;20873;-74
2022/08/11 00:06:31;;;;;;;2.50;2.30;;;17.10;99.90;;;;;;7375742;19;20975;-74
2022/08/11 00:08:57;;;;;;;2.20;2.00;;;17.10;99.90;;;;;;7274228;19;2004436;-74
2022/08/11 00:11:35;;;;;;;3.40;2.50;;;17.10;99.90;;;;;;7378445;19;20869;-74
2022/08/11 00:14:00;;;;;;;2.80;2.40;;;17.10;99.90;;;;;;7379575;19;20352;-74
2022/08/11 00:16:26;;;;;;;2.30;2.10;;;17.20;99.90;;;;;;7377848;19;20336;-74
2022/08/11 00:18:53;;;;;;;2.57;2.37;;;17.10;99.90;;;;;;7381388;19;20726;-74
2022/08/11 00:21:22;;;;;;;2.47;2.28;;;17.10;99.90;;;;;;7382988;19;20343;-74
2022/08/11 00:23:59;;;;;;;2.60;2.40;;;17.00;99.90;;;;;;7387393;19;20344;-74
2022/08/11 00:26:25;;;;;;;2.53;2.33;;;17.00;99.90;;;;;;7282381;19;2005093;-74
2022/08/11 00:28:51;;;;;;;2.83;2.63;;;17.00;99.90;;;;;;7386929;19;20356;-74
2022/08/11 00:31:25;;;;;;;3.03;2.72;;;16.90;99.90;;;;;;7386679;19;20304;-73
2022/08/11 00:33:51;;;;;;;2.90;2.60;;;16.80;99.90;;;;;;7387672;19;20320;-74
2022/08/11 00:36:17;;;;;;;2.40;2.23;;;16.70;99.90;;;;;;7385823;19;20340;-74
2022/08/11 00:38:44;;;;;;;2.40;2.20;;;16.60;99.90;;;;;;7385515;19;20835;-74
2022/08/11 00:41:35;;;;;;;2.60;2.40;;;16.50;99.90;;;;;;7384433;19;20344;-74
2022/08/11 00:44:22;;;;;;;2.45;2.25;;;16.50;99.90;;;;;;7283086;19;2006037;-74
2022/08/11 00:47:06;;;;;;;2.50;2.30;;;16.40;99.90;;;;;;7380891;19;20437;-74
2022/08/11 00:49:57;;;;;;;3.75;2.42;;;16.40;99.90;;;;;;7284668;19;2004320;-74
2022/08/11 00:53:00;;;;;;;2.60;2.40;;;16.40;99.90;;;;;;7282228;19;2004448;-74
2022/08/11 00:55:38;;;;;;;2.13;1.92;;;16.30;99.90;;;;;;7285311;19;2004351;-74
2022/08/11 00:58:20;;;;;;;2.90;2.60;;;16.40;99.90;;;;;;7383435;19;20345;-73
2022/08/11 01:01:14;;;;;;;2.78;2.58;;;16.30;99.90;;;;;;7383955;19;20655;-74
2022/08/11 01:04:07;;;;;;;2.67;2.47;;;16.20;99.90;;;;;;7280473;19;2004354;-74
2022/08/11 01:07:07;;;;;;;2.63;2.42;;;16.20;99.90;;;;;;7280521;19;2004747;-74
2022/08/11 01:09:50;;;;;;;2.50;2.30;;;16.20;99.90;;;;;;7279620;19;2019770;-74
2022/08/11 01:12:53;;;;;;;2.47;2.33;;;16.10;99.90;;;;;;7384806;19;20344;-74
2022/08/11 01:15:26;;;;;;;3.55;2.40;;;16.10;99.90;;;;;;7281597;19;2004554;-74
2022/08/11 01:18:10;;;;;;;2.40;2.20;;;16.00;99.90;;;;;;7280727;19;2004603;-74
2022/08/11 01:21:07;;;;;;;2.60;2.35;;;16.00;99.90;;;;;;7383761;19;20374;-74
2022/08/11 01:23:46;;;;;;;3.30;2.58;;;16.00;99.90;;;;;;7280288;19;2004818;-74
2022/08/11 01:26:26;;;;;;;2.60;2.40;;;15.90;99.90;;;;;;7384006;19;21133;-73
2022/08/11 01:29:10;;;;;;;2.60;2.40;;;15.90;99.90;;;;;;7281322;19;2004394;-74
2022/08/11 01:31:56;;;;;;;3.22;2.58;;;15.70;99.90;;;;;;7388632;19;20416;-74
2022/08/11 01:34:25;;;;;;;2.60;2.40;;;15.70;99.90;;;;;;7279493;19;2004471;-74
2022/08/11 01:37:02;;;;;;;2.78;2.58;;;15.70;99.90;;;;;;7383941;19;20356;-74
2022/08/11 01:39:49;;;;;;;2.72;2.53;;;15.70;99.90;;;;;;7279755;19;2004348;-74
2022/08/11 01:45:36;;;;;;;2.50;2.30;;;15.60;99.90;;;;;;7177747;19;2004871;-74
2022/08/11 01:48:05;;;;;;;2.90;2.70;;;15.50;99.90;;;;;;7382427;19;20345;-74
2022/08/11 01:50:54;;;;;;;2.80;2.50;;;15.50;99.90;;;;;;7384022;19;20351;-74
2022/08/11 01:53:31;;;;;;;2.63;2.40;;;15.50;99.90;;;;;;7385467;19;20330;-74
2022/08/11 01:56:27;;;;;;;2.42;2.22;;;15.50;99.90;;;;;;7279393;19;2004335;-74
2022/08/11 01:59:22;;;;;;;2.60;2.40;;;15.50;99.90;;;;;;7279712;19;2004428;-73
2022/08/11 02:01:50;;;;;;;2.67;2.42;;;15.40;99.90;;;;;;7379011;19;21327;-73
2022/08/11 02:04:30;;;;;;;2.92;2.65;;;15.40;99.90;;;;;;7384878;19;20396;-74
2022/08/11 02:07:12;;;;;;;2.78;2.58;;;15.30;99.90;;;;;;7276715;19;2019999;-74
2022/08/11 02:10:00;;;;;;;4.20;2.50;;;15.30;99.90;;;;;;7381866;19;20350;-74
2022/08/11 02:12:52;;;;;;;2.33;2.13;;;15.30;99.90;;;;;;7278229;19;2004449;-73
2022/08/11 02:15:37;;;;;;;2.50;2.30;;;15.30;99.90;;;;;;7380699;19;20377;-74
2022/08/11 02:18:21;;;;;;;2.65;2.45;;;15.30;99.90;;;;;;7276481;19;2019994;-74
2022/08/11 02:24:13;;;;;;;3.63;2.60;;;15.10;99.90;;;;;;7280384;19;2004302;-74
2022/08/11 02:26:49;;;;;;;3.00;2.70;;;15.10;99.90;;;;;;7277138;19;2004886;-73
2022/08/11 02:29:20;;;;;;;2.78;2.58;;;15.10;99.90;;;;;;7382662;19;20312;-73
2022/08/11 02:35:19;;;;;;;4.78;2.58;;;15.10;99.90;;;;;;7178226;19;2004324;-74
2022/08/11 02:37:55;;;;;;;4.28;2.67;;;15.10;99.90;;;;;;7379767;19;21172;-73
2022/08/11 02:40:33;;;;;;;2.90;2.70;;;15.10;99.90;;;;;;7380655;19;20845;-74
2022/08/11 02:43:09;;;;;;;2.80;2.50;;;15.10;99.90;;;;;;7282857;19;2019669;-74
2022/08/11 02:45:55;;;;;;;2.50;2.30;;;15.20;99.90;;;;;;7385523;19;20378;-74
2022/08/11 02:51:41;;;;;;;4.88;2.60;;;15.20;99.90;;;;;;7177335;19;2004473;-73
2022/08/11 02:54:30;;;;;;;2.85;2.65;;;15.00;99.90;;;;;;7279249;19;2020018;-73
2022/08/11 02:57:02;;;;;;;2.65;2.45;;;14.90;99.90;;;;;;7278282;19;2004485;-74
2022/08/11 02:59:51;;;;;;;4.60;2.70;;;14.90;99.90;;;;;;7381771;19;20336;-72
2022/08/11 03:02:50;;;;;;;2.67;2.47;;;14.90;99.90;;;;;;7383144;19;20329;-74
2022/08/11 03:05:39;;;;;;;4.22;2.70;;;14.80;99.90;;;;;;7281112;19;2004341;-73
2022/08/11 03:08:13;;;;;;;2.70;2.50;;;14.80;99.90;;;;;;7278304;19;2004507;-73
2022/08/11 03:16:43;;;;;;;3.00;2.70;;;14.80;99.90;;;;;;7381441;19;20344;-74
2022/08/11 03:17:09;;;;;;;3.05;2.75;;;14.80;99.90;;;;;;7276927;19;2004216;-74
2022/08/11 03:20:31;;;;;;;2.80;2.60;;;14.70;99.90;;;;;;7276958;19;2004525;-74
2022/08/11 03:23:20;;;;;;;2.70;2.50;;;14.70;99.90;;;;;;7174999;19;2004449;-73
2022/08/11 03:26:13;;;;;;;2.75;2.53;;;14.60;99.90;;;;;;7376586;19;20308;-73
2022/08/11 03:29:03;;;;;;;2.70;2.50;;;14.60;99.90;;;;;;7273822;19;2004527;-73
2022/08/11 03:31:35;;;;;;;3.05;2.55;;;14.60;99.90;;;;;;7276697;19;2004353;-73
2022/08/11 03:34:17;;;;;;;2.75;2.55;;;14.60;99.90;;;;;;7376633;19;20866;-73
2022/08/11 03:36:57;;;;;;;2.60;2.40;;;14.60;99.90;;;;;;7377320;19;21556;-74
2022/08/11 03:39:42;;;;;;;3.00;2.45;;;14.60;99.90;;;;;;7275944;19;2004297;-74
2022/08/11 03:42:26;;;;;;;2.85;2.30;;;14.60;99.90;;;;;;7370543;19;20377;-73
2022/08/11 03:44:51;;;;;;;2.60;2.38;;;14.60;99.90;;;;;;7376334;19;20866;-73
2022/08/11 03:47:38;;;;;;;2.80;2.53;;;14.60;99.90;;;;;;7381012;19;20352;-74
2022/08/11 03:50:32;;;;;;;2.67;2.47;;;14.60;99.90;;;;;;7275284;19;2019946;-73
2022/08/11 03:53:10;;;;;;;2.45;2.25;;;14.60;99.90;;;;;;7275236;19;2004336;-73
2022/08/11 03:56:12;;;;;;;2.92;2.63;;;14.60;99.90;;;;;;7377825;19;20424;-74
2022/08/11 03:59:01;;;;;;;3.03;2.60;;;14.60;99.90;;;;;;7279317;19;2007573;-73
2022/08/11 04:02:07;;;;;;;2.67;2.47;;;14.50;99.90;;;;;;7283411;19;2004468;-73
2022/08/11 04:04:53;;;;;;;2.92;2.63;;;14.60;99.90;;;;;;7284728;19;2004319;-74
2022/08/11 04:07:46;;;;;;;2.80;2.60;;;14.50;99.90;;;;;;7385687;19;20353;-74
2022/08/11 04:10:48;;;;;;;3.95;2.90;;;14.50;99.90;;;;;;7286267;19;2004364;-74
2022/08/11 04:13:35;;;;;;;3.20;2.45;;;14.40;99.90;;;;;;7286064;19;2004369;-74
2022/08/11 04:16:22;;;;;;;3.42;2.80;;;14.40;99.90;;;;;;7283320;19;2004345;-74
2022/08/11 04:19:05;;;;;;;2.90;2.70;;;14.50;99.90;;;;;;7386263;19;20333;-74
2022/08/11 04:22:07;;;;;;;4.68;2.85;;;14.50;99.90;;;;;;7283217;19;2004371;-74
2022/08/11 04:24:53;;;;;;;2.75;2.55;;;14.50;99.90;;;;;;7281383;19;2020093;-74
2022/08/11 04:27:40;;;;;;;2.78;2.58;;;14.50;99.90;;;;;;7385044;19;20439;-74
2022/08/11 04:30:16;;;;;;;3.45;2.97;;;14.50;99.90;;;;;;7283355;19;2004370;-74
2022/08/11 04:33:01;;;;;;;3.17;2.88;;;14.40;99.90;;;;;;7386798;19;21162;-74
2022/08/11 04:35:52;;;;;;;3.40;2.50;;;14.50;99.90;;;;;;7284522;19;2004586;-74
2022/08/11 04:38:44;;;;;;;3.65;2.85;;;14.50;99.90;;;;;;7390271;19;20368;-73
2022/08/11 04:45:09;;;;;;;3.08;2.67;;;14.50;99.90;;;;;;7182105;19;2004524;-73
2022/08/11 05:03:21;;;;;;;3.13;2.83;;;15.00;99.90;;;;;;7178981;19;2004707;-75
2022/08/11 05:06:00;;;;;;;2.78;2.58;;;15.10;99.90;;;;;;7384448;19;20411;-74
2022/08/11 05:08:29;;;;;;;2.75;2.55;;;15.20;99.90;;;;;;7282784;19;2004450;-74
2022/08/11 05:11:22;;;;;;;2.63;2.42;;;15.30;99.90;;;;;;7388029;19;20353;-74
2022/08/11 05:36:45;;;;;;;3.33;3.03;;;16.30;99.90;;;;;;7280886;19;2004569;-74
2022/08/11 05:58:39;;;;;;;3.53;3.22;;;17.20;99.90;;;;;;7279934;19;2004948;-74
2022/08/11 06:01:05;;;;;;;3.35;3.05;;;17.40;99.90;;;;;;7383655;19;20408;-74
2022/08/11 06:03:31;;;;;;;3.40;3.10;;;17.50;99.90;;;;;;7385716;19;20453;-74
2022/08/11 06:05:57;;;;;;;3.67;3.33;;;17.60;99.90;;;;;;7382482;19;20341;-74
2022/08/11 06:08:30;;;;;;;3.38;3.15;;;17.70;99.90;;;;;;7384269;19;20857;-74
2022/08/11 06:11:00;;;;;;;3.45;3.15;;;17.80;99.90;;;;;;7386802;19;20335;-74
2022/08/11 06:13:25;;;;;;;4.85;3.30;;;17.90;99.90;;;;;;7384162;19;20825;-74
2022/08/11 06:15:51;;;;;;;4.90;3.50;;;18.10;99.90;;;;;;7384707;19;20337;-74
2022/08/11 06:18:17;;;;;;;5.72;3.95;;;18.20;99.90;;;;;;7383249;19;20862;-74
2022/08/11 06:20:56;;;;;;;3.47;3.17;;;18.30;99.90;;;;;;7382129;19;20322;-74
2022/08/11 06:23:24;;;;;;;3.25;2.95;;;18.40;99.90;;;;;;7380960;19;20311;-74
2022/08/11 06:25:50;;;;;;;3.47;3.03;;;18.50;99.90;;;;;;7384902;19;20340;-74
2022/08/11 06:28:18;;;;;;;3.08;2.67;;;18.60;99.90;;;;;;7381850;19;20436;-75
2022/08/11 06:30:44;;;;;;;3.80;3.50;;;18.80;99.90;;;;;;7384595;19;20332;-75
2022/08/11 06:33:18;;;;;;;4.03;3.15;;;18.90;99.90;;;;;;7385625;19;20365;-75
2022/08/11 06:36:04;;;;;;;3.40;3.10;;;19.00;99.90;;;;;;7383094;19;20300;-74
2022/08/11 06:38:52;;;;;;;3.58;3.28;;;19.20;99.90;;;;;;7280484;19;2004340;-76
2022/08/11 06:41:44;;;;;;;3.63;3.33;;;19.40;99.90;;;;;;7385456;19;20309;-75
2022/08/11 06:44:13;;;;;;;3.10;2.80;;;19.50;99.90;;;;;;7283568;19;2004429;-75
2022/08/11 06:46:40;;;;;;;4.20;2.85;;;19.60;99.90;;;;;;7378455;19;20324;-75
2022/08/11 06:51:10;;;;;;;4.70;3.30;;;19.80;99.90;;;;;;7380781;19;20337;-75
2022/08/11 06:51:55;;;;;;;4.85;3.45;;;19.90;99.90;;;;;;7380488;19;20301;-74
2022/08/11 06:54:21;;;;;;;3.10;2.80;;;20.10;99.90;;;;;;7379198;19;20335;-74
2022/08/11 07:02:20;;;;;;;3.78;3.25;;;20.60;99.90;;;;;;7381262;19;20297;-75
2022/08/11 07:04:55;;;;;;;3.60;3.30;;;20.80;99.90;;;;;;7378058;19;20322;-74
2022/08/11 07:16:19;;;;;;;3.92;2.97;;;21.20;99.90;;;;;;7379476;19;20333;-75
2022/08/11 07:29:52;;;;;;;4.63;3.00;;;22.10;99.90;;;;;;7381767;19;20682;-75
2022/08/11 07:32:31;;;;;;;3.42;3.13;;;22.20;99.90;;;;;;7388389;19;20329;-75
2022/08/11 07:35:02;;;;;;;4.07;3.58;;;22.40;99.90;;;;;;7285269;19;2004402;-75
2022/08/11 07:37:30;;;;;;;7.38;3.85;;;22.50;99.90;;;;;;7387404;19;20332;-75
2022/08/11 07:39:55;;;;;;;3.83;3.33;;;22.70;99.90;;;;;;7386649;19;21386;-75
2022/08/11 07:42:25;;;;;;;3.67;2.90;;;22.90;99.90;;;;;;7386281;19;20464;-74
2022/08/11 07:53:03;;;;;;;6.93;3.30;;;23.70;99.90;;;;;;7283833;19;2004341;-75
2022/08/11 07:55:30;;;;;;;4.80;3.40;;;23.80;99.90;;;;;;7382663;19;20369;-74
2022/08/11 08:20:12;;;;;;;4.33;1.50;;;25.40;99.90;;;;;;7384632;19;20351;-75
2022/08/11 08:22:38;;;;;;;1.77;1.55;;;25.60;97.30;;;;;;7384289;19;20913;-75
2022/08/11 08:25:04;;;;;;;1.55;1.45;;;25.90;97.20;;;;;;7382913;19;20401;-75
2022/08/11 08:27:30;;;;;;;1.70;1.60;;;26.10;95.80;;;;;;7383217;19;20333;-75
2022/08/11 08:32:40;;;;;;;1.50;1.40;;;26.60;94.70;;;;;;7385467;19;20331;-75
2022/08/11 08:35:07;;;;;;;1.50;1.40;;;26.80;93.90;;;;;;7382829;19;20809;-75
2022/08/11 08:37:32;;;;;;;1.55;1.45;;;27.00;93.80;;;;;;7381766;19;20367;-75
2022/08/11 08:39:58;;;;;;;1.53;1.43;;;27.30;91.80;;;;;;7384895;19;20349;-76
2022/08/11 08:42:27;;;;;;;1.50;1.40;;;27.20;86.20;;;;;;7383115;19;20333;-76
2022/08/11 08:45:05;;;;;;;3.20;1.60;;;27.20;87.20;;;;;;7385680;19;20362;-75
2022/08/11 08:47:34;;;;;;;1.48;1.38;;;27.30;86.30;;;;;;7278731;19;2020125;-75
2022/08/11 08:50:02;;;;;;;1.73;1.40;;;27.40;85.30;;;;;;7383759;19;20353;-75
2022/08/11 08:52:30;;;;;;;2.20;1.20;;;27.40;83.60;;;;;;7384802;19;20867;-75
2022/08/11 08:54:56;;;;;;;1.00;1.00;;;27.60;81.90;;;;;;7381008;19;20357;-75
2022/08/11 08:57:22;;;;;;;1.43;1.17;;;27.60;79.50;;;;;;7383289;19;20332;-75
2022/08/11 08:59:48;;;;;;;1.25;1.15;;;27.70;77.50;;;;;;7383681;19;20357;-75
2022/08/11 09:02:14;;;;;;;1.20;1.03;;;27.90;78.30;;;;;;7375551;19;20344;-74
2022/08/11 09:04:41;;;;;;;1.70;1.30;;;28.00;76.40;;;;;;7374814;19;20423;-75
2022/08/11 09:07:11;;;;;;;2.97;1.30;;;28.10;74.50;;;;;;7378068;19;20374;-75
2022/08/11 09:09:43;;;;;;;1.33;1.10;;;28.30;76.20;;;;;;7382110;19;21168;-75
2022/08/11 09:12:10;;;;;;;1.40;1.10;;;28.50;73.50;;;;;;7383053;19;20336;-75
2022/08/11 09:17:22;;;;;;;2.20;1.23;;;28.40;70.20;;;;;;7384262;19;20686;-75
2022/08/11 09:19:48;;;;;;;1.38;1.27;;;28.40;70.50;;;;;;7386126;19;20347;-74
2022/08/11 09:27:49;;;;;;;1.25;1.15;;;28.30;69.50;;;;;;7382157;19;20325;-74
2022/08/11 09:30:15;;;;;;;1.02;1.02;;;28.60;70.80;;;;;;7381579;19;20388;-75
2022/08/11 09:32:41;;;;;;;1.00;1.00;;;28.90;70.10;;;;;;7381226;19;20308;-75
2022/08/11 09:35:07;;;;;;;2.45;1.20;;;29.20;68.60;;;;;;7379495;19;20387;-75
2022/08/11 09:40:29;;;;;;;3.55;1.70;;;29.40;65.30;;;;;;7382409;19;20324;-75
2022/08/11 09:45:50;;;;;;;1.20;1.20;;;29.10;63.70;;;;;;7379590;19;20341;-75
2022/08/11 09:48:17;;;;;;;1.55;1.20;;;29.20;65.60;;;;;;7381484;19;20304;-74
2022/08/11 09:50:44;;;;;;;1.30;1.20;;;29.20;64.20;;;;;;7381043;19;20340;-75
2022/08/11 09:53:11;;;;;;;1.27;1.20;;;29.40;63.90;;;;;;7381764;19;20730;-75
2022/08/11 09:55:37;;;;;;;1.40;1.30;;;29.80;64.30;;;;;;7376923;19;20348;-75
2022/08/11 09:58:18;;;;;;;1.30;1.20;;;30.40;67.00;;;;;;7380745;19;20679;-75
2022/08/11 10:00:46;;;;;;;1.40;1.30;;;30.70;63.80;;;;;;7380364;19;21329;-75
2022/08/11 10:03:15;;;;;;;1.70;1.13;;;30.90;59.90;;;;;;7381530;19;20328;-75
2022/08/11 10:08:29;;;;;;;2.88;1.30;;;30.80;60.20;;;;;;7278916;19;2004502;-75
2022/08/11 10:10:55;;;;;;;1.63;1.50;;;30.80;58.70;;;;;;7381945;19;20419;-75
2022/08/11 10:13:21;;;;;;;1.10;1.10;;;31.00;59.60;;;;;;7381206;19;20416;-75
2022/08/11 10:15:47;;;;;;;2.15;1.30;;;31.10;57.40;;;;;;7379717;19;20336;-75
2022/08/11 10:18:41;;;;;;;1.20;1.20;;;31.20;56.70;;;;;;7382455;19;20390;-75
2022/08/11 10:21:39;;;;;;;1.33;1.30;;;31.40;58.50;;;;;;7279177;19;2004373;-75
2022/08/11 10:26:59;;;;;;;1.00;1.00;;;31.50;55.30;;;;;;7380544;19;20345;-76
2022/08/11 10:35:07;;;;;;;2.10;1.27;;;32.40;55.00;;;;;;7276657;19;2004361;-74
2022/08/11 10:37:36;;;;;;;1.20;1.10;;;32.40;54.30;;;;;;7379180;19;20340;-76
2022/08/11 10:40:03;;;;;;;1.05;1.05;;;32.70;51.50;;;;;;7381180;19;20332;-75
2022/08/11 10:47:58;;;;;;;1.02;1.02;;;32.40;50.20;;;;;;7277691;19;2004657;-75
2022/08/11 10:58:48;;;;;;;2.10;1.10;;;33.00;48.70;;;;;;7278648;19;2004307;-75
2022/08/11 11:01:22;;;;;;;1.20;1.10;;;33.10;48.00;;;;;;7378415;19;20312;-75
2022/08/11 11:03:51;;;;;;;2.38;1.20;;;33.20;47.20;;;;;;7383684;19;20352;-75
2022/08/11 11:06:34;;;;;;;0.93;0.93;;;33.20;48.50;;;;;;7380901;19;20341;-75
2022/08/11 11:09:11;;;;;;;0.98;0.98;;;33.10;46.40;;;;;;7280554;19;2008076;-75
2022/08/11 11:19:38;;;;;;;6.57;1.10;;;33.90;46.40;;;;;;7381713;19;20351;-76
2022/08/11 11:22:36;;;;;;;0.90;0.90;;;33.90;41.90;;;;;;7382594;19;20679;-75
2022/08/11 11:25:21;;;;;;;3.00;1.00;;;33.90;45.80;;;;;;7380323;19;20348;-75
2022/08/11 11:27:55;;;;;;;2.17;1.13;;;34.00;45.30;;;;;;7278674;19;2004686;-75
2022/08/11 11:30:21;;;;;;;1.02;1.00;;;34.40;44.80;;;;;;7382726;19;20372;-75
2022/08/11 11:32:59;;;;;;;1.15;1.00;;;34.00;42.20;;;;;;7381707;19;20329;-76
2022/08/11 11:35:44;;;;;;;0.90;0.90;;;33.80;44.80;;;;;;7277673;19;2009149;-76
2022/08/11 11:38:10;;;;;;;1.20;1.10;;;34.00;46.10;;;;;;7382032;19;20347;-76
2022/08/11 11:40:36;;;;;;;4.00;1.00;;;34.50;43.40;;;;;;7382389;19;20313;-75
2022/08/11 11:43:02;;;;;;;0.80;0.73;;;34.40;41.00;;;;;;7381632;19;20357;-76
2022/08/11 11:45:28;;;;;;;1.17;1.08;;;34.80;45.60;;;;;;7379319;19;20380;-76
2022/08/11 11:47:54;;;;;;;1.10;1.10;;;35.00;42.90;;;;;;7381843;19;20353;-75
2022/08/11 11:50:33;;;;;;;1.70;1.23;;;35.40;45.40;;;;;;7379117;19;20594;-76
2022/08/11 11:53:00;;;;;;;1.10;1.10;;;35.00;43.00;;;;;;7278233;19;2004544;-76
2022/08/11 11:55:25;;;;;;;1.25;1.15;;;35.10;42.70;;;;;;7378968;19;20328;-75
2022/08/11 12:03:20;;;;;;;1.70;1.20;;;34.40;40.10;;;;;;7382288;19;20309;-77
2022/08/11 12:05:46;;;;;;;1.27;1.13;;;34.30;39.40;;;;;;7380560;19;20328;-75
2022/08/11 12:08:14;;;;;;;1.50;0.98;;;34.40;45.10;;;;;;7380258;19;20724;-75
2022/08/11 12:13:39;;;;;;;1.70;1.00;;;34.60;41.50;;;;;;7381644;19;21278;-76
2022/08/11 12:13:40;;;;;;;2.47;0.98;;;35.10;44.90;;;;;;7276878;19;2004552;-75
2022/08/11 12:16:07;;;;;;;1.00;0.90;;;35.50;41.40;;;;;;7380729;19;20347;-76
2022/08/11 12:18:33;;;;;;;1.50;1.13;;;36.00;42.20;;;;;;7386668;19;20340;-76
2022/08/11 12:20:59;;;;;;;2.30;1.10;;;35.80;41.40;;;;;;7389485;19;20857;-77
2022/08/11 12:28:57;;;;;;;0.90;0.90;;;34.40;40.30;;;;;;7385877;19;20329;-76
2022/08/11 12:31:24;;;;;;;1.10;1.07;;;34.50;41.20;;;;;;7386667;19;20303;-76
2022/08/11 12:33:50;;;;;;;0.90;0.90;;;34.60;40.10;;;;;;7384264;19;20417;-76
2022/08/11 12:36:15;;;;;;;1.20;1.03;;;35.10;41.30;;;;;;7386814;19;20364;-76
2022/08/11 12:38:43;;;;;;;1.10;0.90;;;35.40;39.00;;;;;;7386387;19;20396;-75
2022/08/11 12:46:37;;;;;;;1.73;1.10;;;35.90;40.10;;;;;;7284661;19;2004682;-75
2022/08/11 12:52:04;;;;;;;0.90;0.90;;;35.80;38.90;;;;;;7283996;19;2006209;-76
2022/08/11 12:54:36;;;;;;;0.90;0.90;;;35.60;39.50;;;;;;7386060;19;21199;-76
2022/08/11 13:05:18;;;;;;;1.08;1.05;;;36.70;39.20;;;;;;7386543;19;20337;-76
2022/08/11 13:07:44;;;;;;;1.00;1.00;;;36.50;38.70;;;;;;7388496;19;20660;-76
2022/08/11 13:10:11;;;;;;;1.00;1.00;;;36.50;38.70;;;;;;7386505;19;20429;-76
2022/08/11 13:12:49;;;;;;;1.33;1.10;;;37.00;38.00;;;;;;7387713;19;20304;-76
2022/08/11 13:15:19;;;;;;;1.17;0.93;;;36.70;35.60;;;;;;7384470;19;20329;-76
2022/08/11 13:17:47;;;;;;;1.30;1.13;;;37.10;38.60;;;;;;7386471;19;20340;-77
2022/08/11 13:20:13;;;;;;;1.10;1.10;;;37.30;35.70;;;;;;7385012;19;20336;-76
2022/08/11 13:22:40;;;;;;;2.43;1.07;;;37.60;38.50;;;;;;7387729;19;20327;-76
2022/08/11 13:25:06;;;;;;;1.10;1.10;;;37.70;35.50;;;;;;7385221;19;20343;-77
2022/08/11 13:27:31;;;;;;;1.00;1.00;;;37.50;36.00;;;;;;7386937;19;20681;-76
2022/08/11 13:32:42;;;;;;;2.80;1.10;;;35.50;33.60;;;;;;7385657;19;20301;-76
2022/08/11 13:35:07;;;;;;;2.40;1.20;;;35.20;36.40;;;;;;7385460;19;20403;-76
2022/08/11 13:37:34;;;;;;;1.60;1.30;;;34.40;35.10;;;;;;7385012;19;20858;-76
2022/08/11 13:40:00;;;;;;;1.17;1.10;;;34.60;37.90;;;;;;7385746;19;20333;-75
2022/08/11 13:42:26;;;;;;;1.20;1.10;;;35.20;39.40;;;;;;7385647;19;20435;-76
2022/08/11 13:44:51;;;;;;;1.13;1.13;;;35.50;35.10;;;;;;7383261;19;20351;-76
2022/08/11 13:47:17;;;;;;;1.17;1.17;;;35.90;37.90;;;;;;7385446;19;20310;-76
2022/08/11 13:49:42;;;;;;;2.60;1.23;;;36.30;38.40;;;;;;7386009;19;20312;-76
2022/08/11 13:52:13;;;;;;;1.10;1.00;;;36.70;37.70;;;;;;7384050;19;20337;-76
2022/08/11 13:54:39;;;;;;;1.00;1.00;;;36.90;37.50;;;;;;7382362;19;20332;-76
2022/08/11 13:57:07;;;;;;;1.10;1.00;;;37.20;37.00;;;;;;7382895;19;21477;-76
2022/08/11 13:59:32;;;;;;;3.83;1.00;;;37.40;36.70;;;;;;7384564;19;20301;-76
2022/08/11 14:02:03;;;;;;;1.03;1.03;;;37.90;36.50;;;;;;7385142;19;20352;-76
2022/08/11 14:04:35;;;;;;;1.00;1.00;;;37.50;35.50;;;;;;7382041;19;20323;-76
2022/08/11 14:07:03;;;;;;;1.13;1.13;;;37.80;36.70;;;;;;7384325;19;20337;-76
2022/08/11 14:09:33;;;;;;;0.95;0.95;;;38.70;36.00;;;;;;7382561;19;20309;-76
2022/08/11 14:14:50;;;;;;;1.30;1.20;;;38.30;34.40;;;;;;7382128;19;20317;-76
2022/08/11 14:17:16;;;;;;;1.10;1.10;;;38.10;33.80;;;;;;7383767;19;20376;-74
2022/08/11 14:19:41;;;;;;;1.75;1.17;;;38.50;34.60;;;;;;7384906;19;20426;-75
2022/08/11 14:22:07;;;;;;;1.08;1.08;;;38.80;34.20;;;;;;7382897;19;20884;-76
2022/08/11 14:24:34;;;;;;;1.30;1.20;;;39.20;33.60;;;;;;7381956;19;20374;-75
2022/08/11 14:26:59;;;;;;;1.00;1.00;;;39.70;33.40;;;;;;7381670;19;20337;-75
2022/08/11 14:29:26;;;;;;;1.30;1.23;;;40.00;33.80;;;;;;7383975;19;20878;-75
2022/08/11 14:31:57;;;;;;;1.33;1.20;;;38.70;30.00;;;;;;7383199;19;20333;-76
2022/08/11 14:34:28;;;;;;;1.00;1.00;;;39.10;33.90;;;;;;7380109;19;20460;-76
2022/08/11 14:36:56;;;;;;;4.97;1.20;;;38.90;33.80;;;;;;7361598;19;20875;-74
2022/08/11 14:39:25;;;;;;;0.93;0.93;;;39.10;33.50;;;;;;7381146;19;20736;-76
2022/08/11 14:47:50;;;;;;;1.10;1.10;;;36.60;32.60;;;;;;7280762;19;2004402;-76
2022/08/11 14:50:22;;;;;;;1.15;1.00;;;34.90;35.10;;;;;;7382655;19;20331;-75
2022/08/11 14:53:00;;;;;;;1.30;1.20;;;34.90;37.00;;;;;;7383389;19;20866;-75
2022/08/11 14:58:16;;;;;;;1.20;1.20;;;34.90;36.20;;;;;;7381884;19;20356;-75
2022/08/11 15:00:42;;;;;;;1.40;1.30;;;34.80;36.90;;;;;;7383167;19;20312;-75
2022/08/11 15:03:10;;;;;;;1.07;1.00;;;34.20;35.70;;;;;;7380906;19;20335;-74
2022/08/11 15:05:47;;;;;;;1.10;1.10;;;34.00;37.40;;;;;;7381117;19;20763;-75
2022/08/11 15:08:13;;;;;;;0.90;0.90;;;33.40;37.20;;;;;;7383187;19;20353;-75
2022/08/11 15:10:39;;;;;;;1.10;1.00;;;33.30;37.60;;;;;;7382499;19;20324;-74
2022/08/11 15:13:04;;;;;;;1.20;1.10;;;33.50;37.80;;;;;;7381891;19;20333;-74
2022/08/11 15:18:15;;;;;;;1.27;1.17;;;33.20;37.10;;;;;;7381660;19;20352;-74
2022/08/11 15:26:14;;;;;;;2.97;1.40;;;32.50;38.90;;;;;;7382399;19;20344;-75
2022/08/11 15:45:46;;;;;;;1.45;1.35;;;31.00;41.40;;;;;;7278081;19;2004488;-75
2022/08/11 15:48:05;;;;;;;1.00;1.00;;;30.50;42.30;;;;;;7277369;19;2004395;-75
2022/08/11 15:50:31;;;;;;;1.00;1.00;;;30.60;41.30;;;;;;7378457;19;20309;-76
2022/08/11 15:53:04;;;;;;;1.30;1.23;;;30.60;41.00;;;;;;7383190;19;20349;-75
2022/08/11 15:55:31;;;;;;;2.13;1.10;;;30.60;40.90;;;;;;7386613;19;20333;-75
2022/08/11 16:06:10;;;;;;;1.30;1.20;;;30.20;42.70;;;;;;7285129;19;2004370;-76
2022/08/11 16:08:35;;;;;;;1.23;1.13;;;29.90;42.10;;;;;;7386279;19;20959;-76
2022/08/11 16:11:01;;;;;;;1.20;1.10;;;29.70;43.00;;;;;;7385698;19;20344;-76
2022/08/11 16:18:50;;;;;;;1.30;1.20;;;29.30;43.60;;;;;;7285042;19;2004339;-75
2022/08/11 16:21:17;;;;;;;1.10;1.10;;;29.20;43.90;;;;;;7385999;19;20355;-75
2022/08/11 16:23:45;;;;;;;1.40;1.10;;;29.00;43.70;;;;;;7383739;19;20312;-76
2022/08/11 16:26:11;;;;;;;1.40;1.30;;;28.90;43.20;;;;;;7381701;19;20894;-76
2022/08/11 16:28:37;;;;;;;1.40;1.30;;;28.90;43.80;;;;;;7382653;19;20328;-74
2022/08/11 16:31:09;;;;;;;1.30;1.20;;;29.00;44.00;;;;;;7385684;19;20337;-76
2022/08/11 16:33:36;;;;;;;1.75;1.17;;;28.90;44.60;;;;;;7384976;19;20729;-75
2022/08/11 16:38:47;;;;;;;1.02;0.98;;;28.80;45.10;;;;;;7381417;19;20872;-75
2022/08/11 16:41:14;;;;;;;1.30;1.20;;;28.70;44.30;;;;;;7384536;19;20341;-76
2022/08/11 16:46:58;;;;;;;1.13;1.03;;;28.60;45.00;;;;;;7278330;19;2004481;-75
2022/08/11 16:49:38;;;;;;;1.38;1.27;;;28.40;44.10;;;;;;7384015;19;20312;-75
2022/08/11 16:52:06;;;;;;;1.00;1.00;;;28.30;44.80;;;;;;7280543;19;2004764;-75
2022/08/11 16:54:32;;;;;;;1.40;1.30;;;28.10;44.30;;;;;;7380088;19;20340;-76
2022/08/11 16:59:12;;;;;;;1.93;1.30;;;28.20;44.20;;;;;;7384578;19;20328;-76
2022/08/11 16:59:44;;;;;;;1.40;1.30;;;28.20;44.50;;;;;;7381511;19;20572;-76
2022/08/11 17:13:51;;;;;;;2.50;1.70;;;28.90;47.00;;;;;;7282582;19;2004542;-76
2022/08/11 17:16:20;;;;;;;1.07;1.07;;;29.40;50.10;;;;;;7384650;19;20345;-76
2022/08/11 17:19:08;;;;;;;4.18;1.13;;;29.70;46.90;;;;;;7385895;19;20861;-76
2022/08/11 17:24:30;;;;;;;1.30;1.20;;;30.70;44.20;;;;;;7279395;19;2004956;-75
2022/08/11 17:26:56;;;;;;;1.25;1.20;;;30.80;42.70;;;;;;7384988;19;20341;-75
2022/08/11 17:29:41;;;;;;;3.10;1.20;;;30.90;42.60;;;;;;7383818;19;20320;-76
2022/08/11 17:37:41;;;;;;;1.13;1.08;;;30.90;42.00;;;;;;7281914;19;2004682;-76
2022/08/11 17:40:08;;;;;;;1.25;1.15;;;30.40;41.90;;;;;;7385870;19;20656;-76
2022/08/11 17:50:47;;;;;;;1.30;1.20;;;29.10;43.80;;;;;;7385919;19;20658;-75
2022/08/11 18:01:25;;;;;;;1.00;1.00;;;28.40;44.10;;;;;;7384616;19;20297;-76
2022/08/11 18:03:51;;;;;;;1.10;1.10;;;28.20;44.80;;;;;;7384463;19;20933;-75
2022/08/11 18:06:17;;;;;;;1.15;1.05;;;28.00;44.50;;;;;;7382618;19;20341;-75
